createdAt,value
2018-09-13T04:00:30.905Z,984.46
2018-09-13T04:01:30.847Z,984.50
2018-09-13T04:02:30.816Z,984.52
2018-09-13T04:03:31.011Z,984.52
2018-09-13T04:04:30.799Z,984.51
2018-09-13T04:05:30.790Z,984.46
2018-09-13T04:06:30.786Z,984.42
2018-09-13T04:07:30.762Z,984.39
2018-09-13T04:08:30.760Z,984.43
2018-09-13T04:09:30.739Z,984.40
2018-09-13T04:10:30.728Z,984.37
2018-09-13T04:11:30.731Z,984.40
2018-09-13T04:12:30.705Z,984.41
2018-09-13T04:13:30.693Z,984.45
2018-09-13T04:14:30.685Z,984.43
2018-09-13T04:15:30.676Z,984.42
2018-09-13T04:16:30.675Z,984.43
2018-09-13T04:17:30.665Z,984.42
2018-09-13T04:18:30.635Z,984.44
2018-09-13T04:19:30.630Z,984.45
2018-09-13T04:20:30.614Z,984.39
2018-09-13T04:21:30.621Z,984.41
2018-09-13T04:22:30.663Z,984.41
2018-09-13T04:23:30.584Z,984.49
2018-09-13T04:24:30.577Z,984.44
2018-09-13T04:25:30.561Z,984.43
2018-09-13T04:26:30.565Z,984.46
2018-09-13T04:27:30.542Z,984.49
2018-09-13T04:28:30.528Z,984.45
2018-09-13T04:29:30.515Z,984.45
2018-09-13T04:30:30.510Z,984.48
2018-09-13T04:31:30.511Z,984.48
2018-09-13T04:32:30.482Z,984.52
2018-09-13T04:33:30.476Z,984.60
2018-09-13T04:34:30.460Z,984.57
2018-09-13T04:35:30.491Z,984.61
2018-09-13T04:36:30.450Z,984.52
2018-09-13T04:37:30.427Z,984.51
2018-09-13T04:38:30.423Z,984.50
2018-09-13T04:39:30.409Z,984.48
2018-09-13T04:40:30.391Z,984.46
2018-09-13T04:41:30.395Z,984.40
2018-09-13T04:42:30.369Z,984.47
2018-09-13T04:43:30.357Z,984.44
2018-09-13T04:44:30.349Z,984.43
2018-09-13T04:45:30.336Z,984.39
2018-09-13T04:46:30.335Z,984.41
2018-09-13T04:47:30.335Z,984.40
2018-09-13T04:48:30.304Z,984.35
2018-09-13T04:49:30.299Z,984.40
2018-09-13T04:50:30.279Z,984.44
2018-09-13T04:51:30.287Z,984.45
2018-09-13T04:52:30.260Z,984.45
2018-09-13T04:53:30.249Z,984.45
2018-09-13T04:54:30.237Z,984.48
2018-09-13T04:55:30.226Z,984.50
2018-09-13T04:56:30.227Z,984.49
2018-09-13T04:57:30.204Z,984.51
2018-09-13T04:58:30.194Z,984.52
2018-09-13T04:59:30.184Z,984.61
2018-09-13T05:00:30.173Z,984.58
2018-09-13T05:01:30.182Z,984.58
2018-09-13T05:02:30.145Z,984.60
2018-09-13T05:03:30.137Z,984.58
2018-09-13T05:04:30.126Z,984.56
2018-09-13T05:05:30.116Z,984.58
2018-09-13T05:06:30.170Z,984.53
2018-09-13T05:07:30.094Z,984.53
2018-09-13T05:08:30.081Z,984.54
2018-09-13T05:09:30.091Z,984.56
2018-09-13T05:10:30.060Z,984.60
2018-09-13T05:11:30.063Z,984.61
2018-09-13T05:12:30.037Z,984.60
2018-09-13T05:13:30.025Z,984.60
2018-09-13T05:14:30.019Z,984.60
2018-09-13T05:15:30.004Z,984.63
2018-09-13T05:16:30.003Z,984.61
2018-09-13T05:17:29.983Z,984.58
2018-09-13T05:18:29.968Z,984.53
2018-09-13T05:19:29.958Z,984.54
2018-09-13T05:20:29.967Z,984.59
2018-09-13T05:21:29.966Z,984.57
2018-09-13T05:22:29.925Z,984.55
2018-09-13T05:23:29.915Z,984.56
2018-09-13T05:24:29.992Z,984.54
2018-09-13T05:25:29.890Z,984.55
2018-09-13T05:26:29.913Z,984.51
2018-09-13T05:27:29.881Z,984.52
2018-09-13T05:28:29.861Z,984.47
2018-09-13T05:29:29.846Z,984.47
2018-09-13T05:30:29.837Z,984.47
2018-09-13T05:31:29.861Z,984.47
2018-09-13T05:32:29.812Z,984.47
2018-09-13T05:33:29.807Z,984.45
2018-09-13T05:34:29.794Z,984.45
2018-09-13T05:35:29.778Z,984.42
2018-09-13T05:36:29.769Z,984.41
2018-09-13T05:37:29.769Z,984.41
2018-09-13T05:38:29.748Z,984.40
2018-09-13T05:39:29.739Z,984.37
2018-09-13T05:40:29.726Z,984.39
2018-09-13T05:41:29.718Z,984.35
2018-09-13T05:42:29.719Z,984.38
2018-09-13T05:43:29.696Z,984.39
2018-09-13T05:44:29.687Z,984.37
2018-09-13T05:45:29.673Z,984.43
2018-09-13T05:46:29.656Z,984.38
2018-09-13T05:47:29.657Z,984.36
2018-09-13T05:48:29.745Z,984.35
2018-09-13T05:49:29.637Z,984.33
2018-09-13T05:50:29.615Z,984.35
2018-09-13T05:51:29.604Z,984.37
2018-09-13T05:52:29.602Z,984.35
2018-09-13T05:53:29.594Z,984.29
2018-09-13T05:54:29.572Z,984.29
2018-09-13T05:55:29.565Z,984.30
2018-09-13T05:56:29.546Z,984.24
2018-09-13T05:57:29.546Z,984.28
2018-09-13T05:58:29.524Z,984.28
2018-09-13T05:59:29.523Z,984.30
2018-09-13T06:00:29.505Z,984.31
2018-09-13T06:01:29.580Z,984.29
2018-09-13T06:02:29.494Z,984.30
2018-09-13T06:03:29.471Z,984.31
2018-09-13T06:04:29.464Z,984.32
2018-09-13T06:05:29.451Z,984.26
2018-09-13T06:06:29.434Z,984.28
2018-09-13T06:07:29.435Z,984.28
2018-09-13T06:08:29.411Z,984.32
2018-09-13T06:09:29.403Z,984.34
2018-09-13T06:10:29.392Z,984.38
2018-09-13T06:11:29.377Z,984.39
2018-09-13T06:12:29.382Z,984.44
2018-09-13T06:13:29.411Z,984.40
2018-09-13T06:14:29.344Z,984.39
2018-09-13T06:15:29.332Z,984.39
2018-09-13T06:16:29.323Z,984.37
2018-09-13T06:17:29.324Z,984.37
2018-09-13T06:18:29.299Z,984.34
2018-09-13T06:19:29.289Z,984.36
2018-09-13T06:20:29.278Z,984.34
2018-09-13T06:21:29.264Z,984.38
2018-09-13T06:22:29.270Z,984.34
2018-09-13T06:23:29.244Z,984.29
2018-09-13T06:24:29.243Z,984.31
2018-09-13T06:25:29.224Z,984.28
2018-09-13T06:26:29.216Z,984.29
2018-09-13T06:27:29.213Z,984.26
2018-09-13T06:28:29.188Z,984.25
2018-09-13T06:29:29.215Z,984.24
2018-09-13T06:30:29.168Z,984.21
2018-09-13T06:31:29.154Z,984.19
2018-09-13T06:32:29.160Z,984.17
2018-09-13T06:33:29.134Z,984.16
2018-09-13T06:34:29.125Z,984.19
2018-09-13T06:35:29.111Z,984.19
2018-09-13T06:36:29.144Z,984.18
2018-09-13T06:37:29.103Z,984.25
2018-09-13T06:38:29.130Z,984.24
2018-09-13T06:39:29.066Z,984.31
2018-09-13T06:40:29.058Z,984.25
2018-09-13T06:41:29.046Z,984.28
2018-09-13T06:42:29.117Z,984.25
2018-09-13T06:43:29.025Z,984.20
2018-09-13T06:44:29.009Z,984.21
2018-09-13T06:45:29.004Z,984.19
2018-09-13T06:46:28.998Z,984.20
2018-09-13T06:47:28.988Z,984.20
2018-09-13T06:48:28.975Z,984.17
2018-09-13T06:49:28.958Z,984.14
2018-09-13T06:50:28.946Z,984.18
2018-09-13T06:51:28.935Z,984.22
2018-09-13T06:52:28.935Z,984.19
2018-09-13T06:53:28.911Z,984.17
2018-09-13T06:54:28.901Z,984.15
2018-09-13T06:55:28.890Z,984.16
2018-09-13T06:56:28.896Z,984.15
2018-09-13T06:57:28.880Z,984.14
2018-09-13T06:58:28.855Z,984.20
2018-09-13T06:59:28.847Z,984.21
2018-09-13T07:00:28.837Z,984.18
2018-09-13T07:01:28.825Z,984.22
2018-09-13T07:02:28.873Z,984.25
2018-09-13T07:03:28.800Z,984.23
2018-09-13T07:04:28.791Z,984.20
2018-09-13T07:05:28.779Z,984.25
2018-09-13T07:06:28.780Z,984.19
2018-09-13T07:07:28.771Z,984.22
2018-09-13T07:08:28.753Z,984.21
2018-09-13T07:09:28.738Z,984.24
2018-09-13T07:10:28.725Z,984.26
2018-09-13T07:11:28.709Z,984.30
2018-09-13T07:12:28.712Z,984.29
2018-09-13T07:13:28.689Z,984.35
2018-09-13T07:14:28.680Z,984.38
2018-09-13T07:15:28.666Z,984.39
2018-09-13T07:16:28.657Z,984.37
2018-09-13T07:17:28.662Z,984.34
2018-09-13T07:18:28.631Z,984.33
2018-09-13T07:19:28.644Z,984.35
2018-09-13T07:20:28.616Z,984.34
2018-09-13T07:21:28.603Z,984.31
2018-09-13T07:22:28.605Z,984.29
2018-09-13T07:23:28.635Z,984.37
2018-09-13T07:24:28.565Z,984.34
2018-09-13T07:25:28.558Z,984.34
2018-09-13T07:26:28.545Z,984.36
2018-09-13T07:27:28.546Z,984.34
2018-09-13T07:28:28.520Z,984.38
2018-09-13T07:29:28.511Z,984.38
2018-09-13T07:30:28.498Z,984.40
2018-09-13T07:31:28.491Z,984.39
2018-09-13T07:32:28.489Z,984.42
2018-09-13T07:33:28.463Z,984.43
2018-09-13T07:34:28.453Z,984.47
2018-09-13T07:35:28.444Z,984.42
2018-09-13T07:36:28.452Z,984.42
2018-09-13T07:37:28.420Z,984.42
2018-09-13T07:38:28.423Z,984.40
2018-09-13T07:39:28.398Z,984.43
2018-09-13T07:40:28.386Z,984.36
2018-09-13T07:41:28.377Z,984.32
2018-09-13T07:42:28.435Z,984.28
2018-09-13T07:43:28.375Z,984.26
2018-09-13T07:44:28.343Z,984.20
2018-09-13T07:45:28.331Z,984.20
2018-09-13T07:46:28.320Z,984.23
2018-09-13T07:47:28.311Z,984.22
2018-09-13T07:48:28.313Z,984.18
2018-09-13T07:49:28.304Z,984.21
2018-09-13T07:50:28.283Z,984.19
2018-09-13T07:51:28.339Z,984.16
2018-09-13T07:52:28.300Z,984.18
2018-09-13T07:53:28.256Z,984.20
2018-09-13T07:54:28.254Z,984.22
2018-09-13T07:55:28.220Z,984.21
2018-09-13T07:56:28.273Z,984.22
2018-09-13T07:57:28.197Z,984.24
2018-09-13T07:58:28.197Z,984.25
2018-09-13T07:59:28.174Z,984.34
2018-09-13T08:00:28.165Z,984.37
2018-09-13T08:01:28.153Z,984.38
2018-09-13T08:02:28.142Z,984.43
2018-09-13T08:03:28.142Z,984.41
2018-09-13T08:04:28.121Z,984.47
2018-09-13T08:05:28.111Z,984.43
2018-09-13T08:06:28.097Z,984.43
2018-09-13T08:07:28.085Z,984.50
2018-09-13T08:08:28.092Z,984.52
2018-09-13T08:09:28.106Z,984.51
2018-09-13T08:10:28.054Z,984.53
2018-09-13T08:11:28.042Z,984.50
2018-09-13T08:12:28.030Z,984.51
2018-09-13T08:13:28.032Z,984.49
2018-09-13T08:14:28.010Z,984.45
2018-09-13T08:15:28.028Z,984.49
2018-09-13T08:16:27.986Z,984.49
2018-09-13T08:17:27.975Z,984.45
2018-09-13T08:18:27.975Z,984.41
2018-09-13T08:19:27.954Z,984.46
2018-09-13T08:20:28.045Z,984.46
2018-09-13T08:21:27.929Z,984.45
2018-09-13T08:22:27.918Z,984.50
2018-09-13T08:23:27.922Z,984.52
2018-09-13T08:24:27.912Z,984.52
2018-09-13T08:25:27.885Z,984.52
2018-09-13T08:26:27.875Z,984.55
2018-09-13T08:27:27.872Z,984.55
2018-09-13T08:28:27.861Z,984.61
2018-09-13T08:29:27.867Z,984.62
2018-09-13T08:30:27.837Z,984.63
2018-09-13T08:31:27.821Z,984.66
2018-09-13T08:32:27.815Z,984.65
2018-09-13T08:33:27.958Z,984.67
2018-09-13T08:34:27.788Z,984.68
2018-09-13T08:35:27.775Z,984.70
2018-09-13T08:36:27.763Z,984.69
2018-09-13T08:37:27.754Z,984.67
2018-09-13T08:38:27.754Z,984.66
2018-09-13T08:39:27.732Z,984.64
2018-09-13T08:40:27.719Z,984.65
2018-09-13T08:41:27.708Z,984.66
2018-09-13T08:42:27.697Z,984.62
2018-09-13T08:43:27.697Z,984.65
2018-09-13T08:44:27.761Z,984.65
2018-09-13T08:45:27.672Z,984.65
2018-09-13T08:46:27.655Z,984.65
2018-09-13T08:47:27.690Z,984.66
2018-09-13T08:48:27.645Z,984.61
2018-09-13T08:49:27.617Z,984.62
2018-09-13T08:50:27.610Z,984.64
2018-09-13T08:51:27.596Z,984.63
2018-09-13T08:52:27.776Z,984.65
2018-09-13T08:53:27.595Z,984.65
2018-09-13T08:54:27.562Z,984.58
2018-09-13T08:55:27.550Z,984.57
2018-09-13T08:56:27.543Z,984.61
2018-09-13T08:57:27.530Z,984.61
2018-09-13T08:58:27.530Z,984.60
2018-09-13T08:59:27.504Z,984.63
2018-09-13T09:00:27.497Z,984.60
2018-09-13T09:01:27.488Z,984.60
2018-09-13T09:02:27.473Z,984.58
2018-09-13T09:03:27.476Z,984.54
2018-09-13T09:04:27.453Z,984.55
2018-09-13T09:05:27.438Z,984.54
2018-09-13T09:06:27.494Z,984.50
2018-09-13T09:07:27.422Z,984.57
2018-09-13T09:08:27.425Z,984.55
2018-09-13T09:09:27.397Z,984.62
2018-09-13T09:10:27.382Z,984.60
2018-09-13T09:11:27.371Z,984.68
2018-09-13T09:12:27.362Z,984.67
2018-09-13T09:13:27.377Z,984.73
2018-09-13T09:14:27.347Z,984.68
2018-09-13T09:15:27.334Z,984.71
2018-09-13T09:16:27.317Z,984.70
2018-09-13T09:17:27.312Z,984.72
2018-09-13T09:18:27.356Z,984.69
2018-09-13T09:19:27.301Z,984.64
2018-09-13T09:20:27.270Z,984.64
2018-09-13T09:21:27.261Z,984.61
2018-09-13T09:22:27.248Z,984.62
2018-09-13T09:23:27.251Z,984.69
2018-09-13T09:24:27.234Z,984.69
2018-09-13T09:25:27.222Z,984.71
2018-09-13T09:26:27.215Z,984.69
2018-09-13T09:27:27.194Z,984.65
2018-09-13T09:28:27.193Z,984.66
2018-09-13T09:29:27.231Z,984.72
2018-09-13T09:30:27.166Z,984.62
2018-09-13T09:31:27.150Z,984.62
2018-09-13T09:32:27.136Z,984.60
2018-09-13T09:33:27.139Z,984.64
2018-09-13T09:34:27.115Z,984.62
2018-09-13T09:35:27.109Z,984.57
2018-09-13T09:36:27.093Z,984.59
2018-09-13T09:37:27.084Z,984.58
2018-09-13T09:38:27.104Z,984.55
2018-09-13T09:39:27.061Z,984.58
2018-09-13T09:40:27.111Z,984.55
2018-09-13T09:41:27.038Z,984.58
2018-09-13T09:42:27.031Z,984.56
2018-09-13T09:43:27.018Z,984.55
2018-09-13T09:44:27.018Z,984.55
2018-09-13T09:45:26.994Z,984.53
2018-09-13T09:46:26.988Z,984.53
2018-09-13T09:47:26.974Z,984.55
2018-09-13T09:48:26.962Z,984.53
2018-09-13T09:49:26.958Z,984.56
2018-09-13T09:50:26.967Z,984.54
2018-09-13T09:51:26.950Z,984.53
2018-09-13T09:52:26.986Z,984.53
2018-09-13T09:53:26.937Z,984.53
2018-09-13T09:54:26.908Z,984.53
2018-09-13T09:55:26.903Z,984.52
2018-09-13T09:56:26.873Z,984.51
2018-09-13T09:57:26.859Z,984.54
2018-09-13T09:58:26.878Z,984.52
2018-09-13T09:59:26.850Z,984.52
2018-09-13T10:00:26.836Z,984.49
2018-09-13T10:01:26.816Z,984.50
2018-09-13T10:02:26.803Z,984.50
2018-09-13T10:03:26.792Z,984.48
2018-09-13T10:04:26.853Z,984.48
2018-09-13T10:05:26.772Z,984.45
2018-09-13T10:06:26.760Z,984.47
2018-09-13T10:07:26.746Z,984.43
2018-09-13T10:08:26.735Z,984.39
2018-09-13T10:09:26.741Z,984.37
2018-09-13T10:10:26.718Z,984.39
2018-09-13T10:11:26.704Z,984.33
2018-09-13T10:12:26.693Z,984.37
2018-09-13T10:13:26.685Z,984.40
2018-09-13T10:14:26.680Z,984.43
2018-09-13T10:15:26.660Z,984.47
2018-09-13T10:16:26.661Z,984.48
2018-09-13T10:17:26.634Z,984.55
2018-09-13T10:18:26.625Z,984.56
2018-09-13T10:19:26.628Z,984.56
2018-09-13T10:20:26.602Z,984.60
2018-09-13T10:21:26.601Z,984.54
2018-09-13T10:22:26.585Z,984.59
2018-09-13T10:23:26.571Z,984.62
2018-09-13T10:24:26.573Z,984.58
2018-09-13T10:25:26.549Z,984.58
2018-09-13T10:26:26.539Z,984.58
2018-09-13T10:27:26.525Z,984.61
2018-09-13T10:28:26.512Z,984.58
2018-09-13T10:29:26.566Z,984.64
2018-09-13T10:30:26.492Z,984.65
2018-09-13T10:31:26.479Z,984.61
2018-09-13T10:32:26.485Z,984.61
2018-09-13T10:33:26.463Z,984.56
2018-09-13T10:34:26.463Z,984.58
2018-09-13T10:35:26.438Z,984.62
2018-09-13T10:36:26.424Z,984.55
2018-09-13T10:37:26.413Z,984.55
2018-09-13T10:38:26.418Z,984.58
2018-09-13T10:39:26.421Z,984.62
2018-09-13T10:40:26.379Z,984.59
2018-09-13T10:41:26.553Z,984.64
2018-09-13T10:42:26.398Z,984.68
2018-09-13T10:43:26.464Z,984.68
2018-09-13T10:44:26.347Z,984.64
2018-09-13T10:45:26.333Z,984.65
2018-09-13T10:46:26.313Z,984.62
2018-09-13T10:47:26.367Z,984.62
2018-09-13T10:48:26.292Z,984.59
2018-09-13T10:49:26.291Z,984.62
2018-09-13T10:50:26.339Z,984.64
2018-09-13T10:51:26.267Z,984.56
2018-09-13T10:52:26.306Z,984.53
2018-09-13T10:53:26.235Z,984.59
2018-09-13T10:54:26.298Z,984.51
2018-09-13T10:55:26.250Z,984.50
2018-09-13T10:56:26.202Z,984.46
2018-09-13T10:57:26.199Z,984.47
2018-09-13T10:58:26.178Z,984.51
2018-09-13T10:59:26.215Z,984.48
2018-09-13T11:00:26.157Z,984.50
2018-09-13T11:01:27.063Z,984.55
2018-09-13T11:02:26.136Z,984.55
2018-09-13T11:03:26.123Z,984.53
2018-09-13T11:04:26.319Z,984.54
2018-09-13T11:05:26.103Z,984.57
2018-09-13T11:06:26.089Z,984.58
2018-09-13T11:07:26.082Z,984.53
2018-09-13T11:08:26.081Z,984.55
2018-09-13T11:09:26.066Z,984.54
2018-09-13T11:10:26.070Z,984.58
2018-09-13T11:11:26.118Z,984.54
2018-09-13T11:12:26.025Z,984.56
2018-09-13T11:13:26.013Z,984.56
2018-09-13T11:14:26.017Z,984.60
2018-09-13T11:15:25.990Z,984.58
2018-09-13T11:16:26.013Z,984.56
2018-09-13T11:17:25.965Z,984.58
2018-09-13T11:18:25.956Z,984.60
2018-09-13T11:19:25.954Z,984.54
2018-09-13T11:20:25.933Z,984.55
2018-09-13T11:21:25.929Z,984.53
2018-09-13T11:22:25.914Z,984.51
2018-09-13T11:23:25.900Z,984.51
2018-09-13T11:24:25.917Z,984.53
2018-09-13T11:25:25.877Z,984.55
2018-09-13T11:26:25.868Z,984.60
2018-09-13T11:27:25.868Z,984.59
2018-09-13T11:28:25.843Z,984.57
2018-09-13T11:29:25.846Z,984.56
2018-09-13T11:30:25.846Z,984.57
2018-09-13T11:31:25.813Z,984.58
2018-09-13T11:32:25.801Z,984.53
2018-09-13T11:33:25.793Z,984.53
2018-09-13T11:34:25.787Z,984.49
2018-09-13T11:35:25.770Z,984.53
2018-09-13T11:36:25.757Z,984.57
2018-09-13T11:37:25.743Z,984.60
2018-09-13T11:38:25.732Z,984.50
2018-09-13T11:39:25.730Z,984.54
2018-09-13T11:40:27.870Z,984.53
2018-09-13T11:41:25.702Z,984.52
2018-09-13T11:42:25.749Z,984.53
2018-09-13T11:43:25.678Z,984.50
2018-09-13T11:44:25.691Z,984.47
2018-09-13T11:45:25.658Z,984.50
2018-09-13T11:46:25.774Z,984.53
2018-09-13T11:47:25.633Z,984.51
2018-09-13T11:48:25.620Z,984.55
2018-09-13T11:49:25.612Z,984.54
2018-09-13T11:50:25.610Z,984.50
2018-09-13T11:51:25.586Z,984.50
2018-09-13T11:52:25.576Z,984.53
2018-09-13T11:53:25.570Z,984.55
2018-09-13T11:54:25.552Z,984.61
2018-09-13T11:55:25.556Z,984.59
2018-09-13T11:56:25.530Z,984.64
2018-09-13T11:57:25.605Z,984.62
2018-09-13T11:58:25.507Z,984.61
2018-09-13T11:59:25.518Z,984.65
2018-09-13T12:00:25.506Z,984.60
2018-09-13T12:01:25.476Z,984.59
2018-09-13T12:02:25.618Z,984.54
2018-09-13T12:03:25.453Z,984.52
2018-09-13T12:04:25.444Z,984.55
2018-09-13T12:05:25.441Z,984.49
2018-09-13T12:06:25.423Z,984.51
2018-09-13T12:07:25.409Z,984.49
2018-09-13T12:08:25.401Z,984.49
2018-09-13T12:09:25.402Z,984.50
2018-09-13T12:10:25.385Z,984.48
2018-09-13T12:11:25.460Z,984.43
2018-09-13T12:12:25.355Z,984.47
2018-09-13T12:13:25.355Z,984.43
2018-09-13T12:14:25.454Z,984.43
2018-09-13T12:15:25.414Z,984.42
2018-09-13T12:16:25.310Z,984.38
2018-09-13T12:17:25.299Z,984.36
2018-09-13T12:18:25.357Z,984.39
2018-09-13T12:19:25.396Z,984.31
2018-09-13T12:20:25.400Z,984.34
2018-09-13T12:21:25.254Z,984.35
2018-09-13T12:22:25.248Z,984.33
2018-09-13T12:23:25.235Z,984.36
2018-09-13T12:24:25.221Z,984.33
2018-09-13T12:25:25.227Z,984.39
2018-09-13T12:26:25.356Z,984.40
2018-09-13T12:27:25.220Z,984.47
2018-09-13T12:28:25.174Z,984.48
2018-09-13T12:29:25.165Z,984.54
2018-09-13T12:30:25.165Z,984.48
2018-09-13T12:31:25.142Z,984.52
2018-09-13T12:32:25.167Z,984.53
2018-09-13T12:33:25.129Z,984.55
2018-09-13T12:34:25.110Z,984.56
2018-09-13T12:35:25.110Z,984.56
2018-09-13T12:36:25.086Z,984.59
2018-09-13T12:37:25.079Z,984.55
2018-09-13T12:38:25.074Z,984.53
2018-09-13T12:39:25.052Z,984.49
2018-09-13T12:40:25.054Z,984.52
2018-09-13T12:41:25.030Z,984.49
2018-09-13T12:42:25.018Z,984.49
2018-09-13T12:43:25.011Z,984.43
2018-09-13T12:44:24.999Z,984.39
2018-09-13T12:45:24.996Z,984.33
2018-09-13T12:46:24.976Z,984.27
2018-09-13T12:47:25.090Z,984.27
2018-09-13T12:48:24.952Z,984.35
2018-09-13T12:49:24.949Z,984.36
2018-09-13T12:50:24.939Z,984.38
2018-09-13T12:51:25.000Z,984.39
2018-09-13T12:52:24.908Z,984.38
2018-09-13T12:53:24.900Z,984.46
2018-09-13T12:54:24.885Z,984.39
2018-09-13T12:55:24.888Z,984.43
2018-09-13T12:56:24.979Z,984.44
2018-09-13T12:57:24.856Z,984.45
2018-09-13T12:58:24.841Z,984.41
2018-09-13T12:59:24.832Z,984.40
2018-09-13T13:00:24.836Z,984.44
2018-09-13T13:01:24.809Z,984.41
2018-09-13T13:02:24.798Z,984.36
2018-09-13T13:03:24.789Z,984.39
2018-09-13T13:04:24.776Z,984.28
2018-09-13T13:05:24.776Z,984.29
2018-09-13T13:06:24.756Z,984.25
2018-09-13T13:07:24.743Z,984.28
2018-09-13T13:08:24.732Z,984.24
2018-09-13T13:09:24.720Z,984.21
2018-09-13T13:10:24.724Z,984.20
2018-09-13T13:11:24.696Z,984.32
2018-09-13T13:12:24.693Z,984.31
2018-09-13T13:13:24.674Z,984.39
2018-09-13T13:14:24.663Z,984.36
2018-09-13T13:15:24.668Z,984.40
2018-09-13T13:16:24.707Z,984.39
2018-09-13T13:17:24.630Z,984.42
2018-09-13T13:18:24.620Z,984.42
2018-09-13T13:19:24.637Z,984.40
2018-09-13T13:20:24.607Z,984.36
2018-09-13T13:21:24.601Z,984.34
2018-09-13T13:22:24.575Z,984.30
2018-09-13T13:23:24.565Z,984.20
2018-09-13T13:24:24.557Z,984.19
2018-09-13T13:25:24.560Z,984.22
2018-09-13T13:26:24.537Z,984.23
2018-09-13T13:27:24.578Z,984.37
2018-09-13T13:28:24.512Z,984.34
2018-09-13T13:29:24.499Z,984.37
2018-09-13T13:30:24.497Z,984.31
2018-09-13T13:31:24.476Z,984.30
2018-09-13T13:32:24.467Z,984.28
2018-09-13T13:33:24.451Z,984.31
2018-09-13T13:34:24.442Z,984.28
2018-09-13T13:35:24.445Z,984.31
2018-09-13T13:36:24.446Z,984.28
2018-09-13T13:37:24.407Z,984.26
2018-09-13T13:38:24.396Z,984.36
2018-09-13T13:39:24.388Z,984.29
2018-09-13T13:40:24.385Z,984.30
2018-09-13T13:41:24.395Z,984.29
2018-09-13T13:42:24.353Z,984.28
2018-09-13T13:43:24.359Z,984.30
2018-09-13T13:44:24.329Z,984.25
2018-09-13T13:45:24.336Z,984.24
2018-09-13T13:46:24.308Z,984.23
2018-09-13T13:47:24.300Z,984.19
2018-09-13T13:48:24.346Z,984.16
2018-09-13T13:49:24.294Z,984.17
2018-09-13T13:50:24.289Z,984.15
2018-09-13T13:51:24.251Z,984.14
2018-09-13T13:52:24.242Z,984.15
2018-09-13T13:53:24.230Z,984.14
2018-09-13T13:54:24.217Z,984.12
2018-09-13T13:55:24.222Z,984.11
2018-09-13T13:56:24.505Z,984.05
2018-09-13T13:57:24.184Z,984.11
2018-09-13T13:58:24.176Z,984.07
2018-09-13T13:59:24.164Z,984.09
2018-09-13T14:00:24.152Z,984.03
2018-09-13T14:01:24.157Z,984.03
2018-09-13T14:02:24.133Z,984.04
2018-09-13T14:03:24.122Z,983.96
2018-09-13T14:04:24.115Z,983.94
2018-09-13T14:05:24.102Z,983.89
2018-09-13T14:06:24.137Z,983.86
2018-09-13T14:07:24.074Z,983.88
2018-09-13T14:08:24.063Z,983.98
2018-09-13T14:09:24.054Z,983.98
2018-09-13T14:10:24.101Z,984.02
2018-09-13T14:11:24.043Z,984.12
2018-09-13T14:12:24.026Z,984.09
2018-09-13T14:13:24.008Z,984.16
2018-09-13T14:14:23.996Z,984.18
2018-09-13T14:15:23.984Z,984.15
2018-09-13T14:16:24.207Z,984.19
2018-09-13T14:17:23.964Z,984.16
2018-09-13T14:18:23.953Z,984.16
2018-09-13T14:19:23.941Z,984.17
2018-09-13T14:20:23.965Z,984.14
2018-09-13T14:21:23.931Z,984.13
2018-09-13T14:22:23.906Z,984.09
2018-09-13T14:23:23.905Z,984.13
2018-09-13T14:24:23.984Z,984.08
2018-09-13T14:25:23.873Z,984.11
2018-09-13T14:26:23.893Z,984.11
2018-09-13T14:27:23.850Z,984.07
2018-09-13T14:28:23.840Z,984.08
2018-09-13T14:29:23.829Z,984.05
2018-09-13T14:30:23.818Z,984.00
2018-09-13T14:31:23.840Z,983.97
2018-09-13T14:32:23.797Z,984.00
2018-09-13T14:33:23.786Z,983.99
2018-09-13T14:34:23.774Z,984.01
2018-09-13T14:35:23.769Z,983.94
2018-09-13T14:36:23.762Z,983.95
2018-09-13T14:37:23.753Z,983.96
2018-09-13T14:38:23.781Z,983.89
2018-09-13T14:39:23.718Z,983.92
2018-09-13T14:40:23.708Z,983.89
2018-09-13T14:41:23.757Z,983.84
2018-09-13T14:42:23.701Z,983.89
2018-09-13T14:43:23.676Z,983.87
2018-09-13T14:44:23.663Z,983.84
2018-09-13T14:45:23.652Z,983.83
2018-09-13T14:46:23.650Z,983.85
2018-09-13T14:47:23.716Z,983.81
2018-09-13T14:48:23.651Z,983.83
2018-09-13T14:49:23.617Z,983.82
2018-09-13T14:50:23.595Z,983.81
2018-09-13T14:51:23.585Z,983.81
2018-09-13T14:52:23.585Z,983.88
2018-09-13T14:53:23.562Z,983.87
2018-09-13T14:54:23.564Z,983.84
2018-09-13T14:55:23.541Z,983.87
2018-09-13T14:56:23.576Z,983.87
2018-09-13T14:57:23.558Z,983.82
2018-09-13T14:58:23.508Z,983.82
2018-09-13T14:59:23.497Z,983.80
2018-09-13T15:00:23.514Z,983.82
2018-09-13T15:01:23.487Z,983.78
2018-09-13T15:02:23.473Z,983.79
2018-09-13T15:03:23.453Z,983.77
2018-09-13T15:04:23.449Z,983.77
2018-09-13T15:05:23.441Z,983.77
2018-09-13T15:06:23.417Z,983.77
2018-09-13T15:07:23.503Z,983.75
2018-09-13T15:08:23.429Z,983.73
2018-09-13T15:09:23.488Z,983.76
2018-09-13T15:10:23.379Z,983.71
2018-09-13T15:11:23.363Z,983.71
2018-09-13T15:12:23.388Z,983.71
2018-09-13T15:13:23.341Z,983.73
2018-09-13T15:14:23.330Z,983.75
2018-09-13T15:15:23.317Z,983.74
2018-09-13T15:16:23.309Z,983.76
2018-09-13T15:17:23.327Z,983.74
2018-09-13T15:18:23.285Z,983.75
2018-09-13T15:19:23.277Z,983.76
2018-09-13T15:20:23.262Z,983.72
2018-09-13T15:21:23.255Z,983.68
2018-09-13T15:22:23.249Z,983.69
2018-09-13T15:23:23.228Z,983.71
2018-09-13T15:24:23.344Z,983.67
2018-09-13T15:25:23.206Z,983.67
2018-09-13T15:26:23.196Z,983.68
2018-09-13T15:27:23.196Z,983.72
2018-09-13T15:28:23.172Z,983.71
2018-09-13T15:29:23.167Z,983.68
2018-09-13T15:30:23.154Z,983.69
2018-09-13T15:31:23.198Z,983.71
2018-09-13T15:32:23.154Z,983.71
2018-09-13T15:33:23.124Z,983.70
2018-09-13T15:34:23.106Z,983.69
2018-09-13T15:35:23.097Z,983.69
2018-09-13T15:36:23.084Z,983.71
2018-09-13T15:37:23.085Z,983.72
2018-09-13T15:38:23.062Z,983.68
2018-09-13T15:39:23.055Z,983.70
2018-09-13T15:40:23.040Z,983.70
2018-09-13T15:41:23.030Z,983.77
2018-09-13T15:42:23.029Z,983.78
2018-09-13T15:43:23.017Z,983.75
2018-09-13T15:44:22.998Z,983.73
2018-09-13T15:45:22.983Z,983.73
2018-09-13T15:46:22.972Z,983.71
2018-09-13T15:47:22.975Z,983.71
2018-09-13T15:48:22.953Z,983.70
2018-09-13T15:49:22.951Z,983.69
2018-09-13T15:50:22.934Z,983.64
2018-09-13T15:51:22.922Z,983.65
2018-09-13T15:52:22.944Z,983.65
2018-09-13T15:53:22.895Z,983.68
2018-09-13T15:54:22.885Z,983.67
2018-09-13T15:55:22.891Z,983.69
2018-09-13T15:56:22.860Z,983.68
2018-09-13T15:57:22.905Z,983.67
2018-09-13T15:58:22.849Z,983.67
2018-09-13T15:59:22.885Z,983.65
2018-09-13T16:00:22.821Z,983.70
2018-09-13T16:01:22.821Z,983.67
2018-09-13T16:02:22.795Z,983.69
2018-09-13T16:03:22.793Z,983.72
2018-09-13T16:04:22.772Z,983.69
2018-09-13T16:05:22.759Z,983.70
2018-09-13T16:06:22.750Z,983.72
2018-09-13T16:07:22.751Z,983.72
2018-09-13T16:08:22.738Z,983.67
2018-09-13T16:09:22.717Z,983.65
2018-09-13T16:10:22.706Z,983.66
2018-09-13T16:11:22.697Z,983.67
2018-09-13T16:12:22.743Z,983.64
2018-09-13T16:13:22.680Z,983.70
2018-09-13T16:14:22.662Z,983.65
2018-09-13T16:15:22.648Z,983.68
2018-09-13T16:16:22.642Z,983.68
2018-09-13T16:17:22.628Z,983.70
2018-09-13T16:18:22.632Z,983.73
2018-09-13T16:19:22.603Z,983.72
2018-09-13T16:20:22.592Z,983.77
2018-09-13T16:21:22.589Z,983.74
2018-09-13T16:22:22.572Z,983.78
2018-09-13T16:23:22.570Z,983.78
2018-09-13T16:24:22.549Z,983.76
2018-09-13T16:25:22.545Z,983.76
2018-09-13T16:26:22.537Z,983.76
2018-09-13T16:27:22.545Z,983.70
2018-09-13T16:28:22.522Z,983.73